Weather at Lancaster Airpark

Public forecast

Using degrees Celsius for public forecast. Weather courtesy of forecast.io.

Closest aviation weather report (METAR) to Lancaster Airpark

Closest report is Massena International Airport Richards Field, 25.9 nm (48.0 km) SW.

2024/07/14 07:53 (retrieved 35 minutes ago)

KMSS 140753Z AUTO 23005KT 10SM CLR 19/17 A3005 RMK AO2 SLP172 T01890172

Closest aviation forecast (TAF) to Lancaster Airpark

Closest forecast is Massena International Airport Richards Field, 25.9 nm (48.0 km) SW.

2024/07/14 06:34 (retrieved 2 hours ago)

TAF KMSS 140532Z 1406/1506 22004KT P6SM SKC FM141400 24009KT P6SM SKC FM150000 21003KT P6SM SKC